Chaplin, Canada
Current Conditions -  °F | °C
As of 2:51 AM on Friday 24 Oct 2014 (Local Time) from CYYN Reporting Station
Scattered Clouds Scattered Clouds  
Wind Chill: 54°   Ceiling: Unl
Heat Index: 54°   Visibility: 9mi
Dew Point: 30°   Wind: 29mph
Humidity: 41%   Direction: 240°WSW
Pressure: 29.66"   Gusts: 35mph
Location:  50.47°N, 106.67°W
Report Text: CYYN 240851Z AUTO 24025G30KT 9SM SCT160 SCT180 SCT200 12/M01 A2966 RMK PRESRR SLP046 DENSITY ALT 3200FT
Loading
Personal Weather Stations






























Interactive Weather Map
Tropical Storm Tracking
New forecast layout! Learn more

10-Day Weather Forecast

Advertisements
Track Severe Weather on mobile